Time;durP1;ratioP1;P1;durP2;ratioP2;P2;SDS_P1;SDS_P2;PMS_P1;PMS_P2;Temp;Humidity;BMP_temperature;BMP_pressure;BME280_temperature;BME280_humidity;BME280_pressure;Samples;Min_cycle;Max_cycle;Signal;HPM_P1;HPM_P2
2022/11/08 00:01:43;;;;;;;24.70;18.83;;;;;;;14.77;100.00;102101.34;2070041;28;20754;-66
2022/11/08 00:02:43;;;;;;;28.77;19.87;;;;;;;14.92;100.00;102118.63;2072492;28;20429;-66
2022/11/08 00:03:44;;;;;;;23.20;20.70;;;;;;;14.90;100.00;102121.84;2072140;28;20209;-66
2022/11/08 00:04:44;;;;;;;30.77;21.07;;;;;;;14.50;100.00;102064.34;2072129;28;20186;-66
2022/11/08 00:13:59;;;;;;;30.73;21.33;;;;;;;14.44;100.00;102059.69;2071601;28;20432;-66
2022/11/08 00:15:00;;;;;;;28.30;21.43;;;;;;;14.83;100.00;102119.19;2070974;28;20514;-66
2022/11/08 00:16:00;;;;;;;27.97;22.73;;;;;;;14.57;100.00;102072.59;2070925;28;20458;-66
2022/11/08 00:17:01;;;;;;;28.47;22.73;;;;;;;14.31;100.00;102026.03;2071902;28;20448;-66
2022/11/08 00:18:01;;;;;;;27.77;21.10;;;;;;;14.85;100.00;102113.19;2072039;28;20197;-66
2022/11/08 00:19:02;;;;;;;28.80;22.57;;;;;;;14.10;100.00;101980.97;2071834;28;20257;-66
2022/11/08 00:20:04;;;;;;;26.73;21.77;;;;;;;14.86;100.00;102109.94;2073010;28;20627;-66
2022/11/08 00:21:04;;;;;;;27.93;22.13;;;;;;;14.86;100.00;102111.97;2071296;28;20217;-66
2022/11/08 00:22:05;;;;;;;25.20;21.50;;;;;;;14.87;100.00;102114.34;2070978;28;20583;-66
2022/11/08 00:23:06;;;;;;;28.57;22.10;;;;;;;14.88;100.00;102115.91;2070361;28;20192;-66
2022/11/08 00:24:07;;;;;;;28.83;22.10;;;;;;;14.88;100.00;102104.75;2072076;28;20221;-66
2022/11/08 00:25:08;;;;;;;31.23;21.70;;;;;;;14.13;100.00;101991.25;2072417;28;20451;-66
2022/11/08 00:26:09;;;;;;;31.63;21.97;;;;;;;14.88;100.00;102101.94;2071491;28;20256;-66
2022/11/08 00:27:14;;;;;;;28.90;22.53;;;;;;;14.89;100.00;102105.50;2071399;28;20424;-66
2022/11/08 00:28:14;;;;;;;30.13;23.07;;;;;;;14.89;100.00;102097.94;2071953;28;20182;-66
2022/11/08 00:29:15;;;;;;;29.27;22.47;;;;;;;14.89;100.00;102111.09;2072575;28;20465;-66
2022/11/08 00:30:15;;;;;;;27.43;22.17;;;;;;;14.87;100.00;102105.97;2070084;28;20200;-66
2022/11/08 00:31:16;;;;;;;28.47;22.17;;;;;;;14.82;100.00;102102.84;2071807;28;20220;-66
2022/11/08 00:32:19;;;;;;;31.50;23.17;;;;;;;14.78;100.00;102110.50;2072196;28;20233;-66
2022/11/08 00:33:20;;;;;;;31.70;23.87;;;;;;;14.39;100.00;102026.72;2071239;28;20186;-66
2022/11/08 00:34:20;;;;;;;27.90;23.00;;;;;;;13.96;100.00;101959.69;2070852;28;20451;-66
2022/11/08 00:35:20;;;;;;;33.10;23.60;;;;;;;14.90;100.00;102104.31;2072194;28;20192;-66
2022/11/08 00:36:21;;;;;;;27.00;22.73;;;;;;;14.89;100.00;102111.91;2071152;28;20656;-66
2022/11/08 00:37:22;;;;;;;29.37;22.27;;;;;;;14.91;100.00;102106.66;2072791;28;20185;-66
2022/11/08 00:38:22;;;;;;;29.67;22.00;;;;;;;14.91;100.00;102105.88;2071497;28;20193;-66
2022/11/08 00:39:22;;;;;;;30.40;22.27;;;;;;;14.89;100.00;102097.13;2070422;28;20675;-66
2022/11/08 00:40:23;;;;;;;25.17;20.93;;;;;;;14.90;100.00;102093.91;2070913;28;20231;-66
2022/11/08 00:41:23;;;;;;;26.23;20.83;;;;;;;14.90;100.00;102101.53;2070439;28;20700;-66
2022/11/08 00:42:24;;;;;;;29.00;21.50;;;;;;;14.69;100.00;102062.81;2071249;28;20213;-66
2022/11/08 00:43:25;;;;;;;28.27;21.90;;;;;;;14.92;100.00;102093.50;2071193;28;20544;-66
2022/11/08 00:44:25;;;;;;;27.20;21.10;;;;;;;14.94;100.00;102105.03;2070887;28;20530;-66
2022/11/08 00:45:26;;;;;;;27.73;19.17;;;;;;;14.56;100.00;102040.31;2071812;28;20229;-66
2022/11/08 00:46:26;;;;;;;27.40;20.23;;;;;;;14.93;100.00;102092.28;2072705;28;20185;-66
2022/11/08 00:47:27;;;;;;;25.03;20.17;;;;;;;14.90;100.00;102085.53;2070774;28;20201;-66
2022/11/08 00:48:27;;;;;;;26.23;20.73;;;;;;;14.77;100.00;102067.06;2071829;28;20193;-66
2022/11/08 00:49:28;;;;;;;29.30;21.20;;;;;;;14.90;100.00;102088.34;2070962;28;20209;-66
2022/11/08 00:50:28;;;;;;;31.43;20.80;;;;;;;14.90;100.00;102096.72;2070819;28;20719;-66
2022/11/08 00:51:28;;;;;;;28.07;21.07;;;;;;;14.93;100.00;102093.09;2070746;28;20189;-66
2022/11/08 00:52:29;;;;;;;34.57;21.87;;;;;;;14.95;100.00;102101.81;2071211;28;20178;-66
2022/11/08 00:53:29;;;;;;;31.43;21.97;;;;;;;14.93;100.00;102090.28;2071690;28;20618;-66
2022/11/08 00:54:30;;;;;;;28.00;21.87;;;;;;;14.94;100.00;102091.06;2071466;28;20186;-66
2022/11/08 00:55:30;;;;;;;27.53;20.90;;;;;;;14.93;100.00;102095.06;2071869;28;20192;-66
2022/11/08 00:56:31;;;;;;;25.90;19.97;;;;;;;14.80;100.00;102077.38;2071502;28;20209;-66
2022/11/08 00:57:32;;;;;;;30.23;20.53;;;;;;;14.92;100.00;102096.28;2071182;28;20276;-66
2022/11/08 00:58:33;;;;;;;23.77;19.07;;;;;;;14.91;100.00;102092.69;2071303;28;20444;-66
2022/11/08 00:59:33;;;;;;;25.70;19.27;;;;;;;14.91;100.00;102091.94;2071065;28;20219;-66
2022/11/08 01:00:34;;;;;;;30.23;21.07;;;;;;;14.90;100.00;102095.94;2069587;28;20428;-66
2022/11/08 01:01:34;;;;;;;29.97;20.80;;;;;;;14.84;100.00;102075.28;2071303;28;20184;-66
2022/11/08 01:02:35;;;;;;;26.23;21.33;;;;;;;14.86;100.00;102089.63;2072596;28;20281;-66
2022/11/08 01:03:35;;;;;;;30.43;22.13;;;;;;;14.72;100.00;102071.16;2070565;28;20652;-66
2022/11/08 01:04:35;;;;;;;26.80;21.40;;;;;;;14.85;100.00;102094.41;2069734;28;20218;-66
2022/11/08 01:05:36;;;;;;;30.27;21.17;;;;;;;14.84;100.00;102092.03;2072720;28;20213;-66
2022/11/08 01:06:38;;;;;;;32.43;21.70;;;;;;;14.64;100.00;102063.31;2070700;28;20576;-66
2022/11/08 01:07:38;;;;;;;26.77;21.07;;;;;;;13.89;100.00;101940.28;2070898;28;20441;-66
2022/11/08 01:08:40;;;;;;;24.27;20.23;;;;;;;14.81;100.00;102102.06;2070277;28;20938;-66
2022/11/08 01:09:40;;;;;;;26.37;20.30;;;;;;;14.80;100.00;102092.13;2070895;28;20643;-66
2022/11/08 01:10:42;;;;;;;27.60;20.97;;;;;;;14.70;100.00;102081.94;2070665;28;20946;-66
2022/11/08 01:11:45;;;;;;;24.23;18.17;;;;;;;14.19;100.00;102004.31;2071671;28;20180;-66
2022/11/08 01:12:45;;;;;;;21.03;17.50;;;;;;;14.77;100.00;102098.56;2072198;28;20459;-66
2022/11/08 01:13:47;;;;;;;23.83;18.00;;;;;;;14.80;100.00;102089.31;2071144;28;20635;-66
2022/11/08 01:14:47;;;;;;;23.30;17.07;;;;;;;14.79;100.00;102089.75;2070754;28;20236;-66
2022/11/08 01:15:48;;;;;;;23.00;18.17;;;;;;;14.77;100.00;102081.00;2070649;28;20448;-66
2022/11/08 01:16:48;;;;;;;24.23;19.73;;;;;;;14.79;100.00;102089.75;2071688;28;20571;-66
2022/11/08 01:17:48;;;;;;;31.50;21.10;;;;;;;14.77;100.00;102092.97;2071680;28;20228;-66
2022/11/08 01:18:51;;;;;;;26.83;20.80;;;;;;;13.91;100.00;101957.38;2071199;28;20743;-66
2022/11/08 01:19:51;;;;;;;25.50;19.60;;;;;;;14.76;100.00;102099.75;2070592;28;20193;-66
2022/11/08 01:20:52;;;;;;;27.77;19.47;;;;;;;14.70;100.00;102081.94;2071843;28;21025;-66
2022/11/08 01:21:52;;;;;;;31.03;24.33;;;;;;;14.75;100.00;102094.63;2071729;28;20205;-66
2022/11/08 01:22:53;;;;;;;34.40;25.10;;;;;;;14.73;100.00;102083.88;2071630;28;20663;-66
2022/11/08 01:23:53;;;;;;;30.87;23.90;;;;;;;14.77;100.00;102095.78;2069336;28;20201;-66
2022/11/08 01:24:54;;;;;;;37.97;22.30;;;;;;;14.75;100.00;102087.03;2071605;28;20197;-66
2022/11/08 01:25:54;;;;;;;27.10;20.97;;;;;;;14.74;100.00;102098.59;2071482;28;20197;-66
2022/11/08 01:26:55;;;;;;;26.70;21.53;;;;;;;14.76;100.00;102096.97;2071364;28;20200;-66
2022/11/08 01:27:56;;;;;;;24.73;20.67;;;;;;;14.78;100.00;102105.72;2069638;28;20193;-66
2022/11/08 01:28:57;;;;;;;25.10;20.10;;;;;;;14.78;100.00;102091.75;2072333;28;20263;-66
2022/11/08 01:29:57;;;;;;;29.13;20.83;;;;;;;14.75;100.00;102100.19;2070325;28;20456;-66
2022/11/08 01:31:06;;;;;;;20.80;18.00;;;;;;;14.75;100.00;102089.03;2071092;28;20566;-66
2022/11/08 01:32:06;;;;;;;24.07;21.30;;;;;;;14.76;100.00;102085.78;2071870;28;20185;-66
2022/11/08 01:33:07;;;;;;;18.20;15.73;;;;;;;14.76;100.00;102085.78;2071285;28;20440;-66
2022/11/08 01:34:08;;;;;;;22.90;19.87;;;;;;;14.75;100.00;102092.59;2071390;28;20193;-66
2022/11/08 01:35:08;;;;;;;27.43;22.20;;;;;;;14.71;100.00;102093.88;2071092;28;20768;-65
2022/11/08 01:36:11;;;;;;;27.03;22.83;;;;;;;14.71;100.00;102093.88;2071320;28;20197;-65
2022/11/08 01:37:11;;;;;;;25.43;20.83;;;;;;;14.73;100.00;102099.81;2071549;28;20257;-65
2022/11/08 01:38:12;;;;;;;25.87;21.10;;;;;;;14.73;100.00;102094.25;2071346;28;20811;-65
2022/11/08 01:39:12;;;;;;;22.33;16.87;;;;;;;14.76;100.00;102093.41;2071813;28;20619;-66
2022/11/08 01:40:13;;;;;;;19.77;16.37;;;;;;;14.74;100.00;102090.22;2071241;28;20204;-66
2022/11/08 01:41:14;;;;;;;19.20;17.20;;;;;;;14.75;100.00;102095.38;2070534;28;20213;-66
2022/11/08 01:42:15;;;;;;;19.40;15.77;;;;;;;14.76;100.00;102096.97;2070734;28;20272;-66
2022/11/08 01:43:29;;;;;;;21.17;17.13;;;;;;;14.63;100.00;102098.00;2071403;28;20441;-66
2022/11/08 01:44:30;;;;;;;21.20;17.00;;;;;;;14.75;100.00;102095.38;2070442;28;20639;-66
2022/11/08 01:46:18;;;;;;;17.80;15.73;;;;;;;14.77;100.00;102095.78;2071193;28;20908;-66
2022/11/08 01:47:19;;;;;;;20.53;15.07;;;;;;;14.74;100.00;102091.03;2070849;28;20247;-66
2022/11/08 01:48:19;;;;;;;18.60;15.73;;;;;;;14.76;100.00;102085.03;2070581;28;20448;-66
2022/11/08 01:49:58;;;;;;;19.27;15.77;;;;;;;14.78;100.00;102088.16;2070499;28;20213;-66
2022/11/08 01:50:59;;;;;;;19.57;15.90;;;;;;;14.75;100.00;102083.47;2067332;28;20275;-66
2022/11/08 01:52:23;;;;;;;19.30;15.10;;;;;;;14.74;100.00;102091.03;2070866;28;20938;-66
2022/11/08 01:53:26;;;;;;;21.53;16.00;;;;;;;14.74;100.00;102081.84;2077152;28;20420;-66
2022/11/08 01:54:45;;;;;;;20.20;15.03;;;;;;;14.69;100.00;102085.94;2076952;28;20431;-66
2022/11/08 01:55:47;;;;;;;19.57;15.23;;;;;;;14.54;100.00;102053.91;2068421;28;20424;-66
2022/11/08 01:56:48;;;;;;;20.33;15.00;;;;;;;14.73;100.00;102083.06;2071906;28;20436;-66
2022/11/08 01:57:51;;;;;;;19.93;15.60;;;;;;;14.04;100.00;101968.72;2070419;28;20448;-66
2022/11/08 01:58:54;;;;;;;16.47;14.77;;;;;;;14.73;100.00;102083.88;2069599;28;21161;-66
2022/11/08 01:59:58;;;;;;;19.00;15.03;;;;;;;14.74;100.00;102091.03;2069573;28;20448;-66
2022/11/08 02:01:01;;;;;;;22.10;16.10;;;;;;;14.78;100.00;102077.00;2069284;28;21021;-66
2022/11/08 02:02:01;;;;;;;18.83;15.93;;;;;;;14.76;100.00;102074.63;2069843;28;20465;-66
2022/11/08 02:03:04;;;;;;;20.20;15.57;;;;;;;14.76;100.00;102080.22;2068842;28;20421;-66
2022/11/08 02:04:05;;;;;;;20.37;16.87;;;;;;;14.76;100.00;102077.44;2071079;28;20996;-66
2022/11/08 02:05:23;;;;;;;18.37;16.40;;;;;;;14.76;100.00;102083.00;2070106;28;20444;-66
2022/11/08 02:06:24;;;;;;;23.47;16.70;;;;;;;14.75;100.00;102073.06;2072075;28;20568;-66
2022/11/08 02:07:25;;;;;;;19.80;16.40;;;;;;;14.73;100.00;102075.50;2069078;28;20514;-66
2022/11/08 02:08:25;;;;;;;18.97;15.87;;;;;;;14.72;100.00;102070.34;2070121;28;20205;-66
2022/11/08 02:09:27;;;;;;;17.80;15.90;;;;;;;14.34;100.00;102008.44;2070662;28;20514;-66
2022/11/08 02:10:39;;;;;;;18.07;16.17;;;;;;;14.74;100.00;102070.69;2070752;28;20622;-66
2022/11/08 02:11:40;;;;;;;18.17;15.60;;;;;;;14.74;100.00;102076.28;2071030;28;20509;-66
2022/11/08 02:12:42;;;;;;;17.20;15.13;;;;;;;14.72;100.00;102073.13;2070265;28;20930;-66
2022/11/08 02:13:42;;;;;;;19.17;15.80;;;;;;;14.70;100.00;102070.00;2070765;28;20428;-66
2022/11/08 02:14:43;;;;;;;18.63;15.53;;;;;;;14.72;100.00;102073.94;2070705;28;20459;-66
2022/11/08 02:15:43;;;;;;;18.63;15.63;;;;;;;14.72;100.00;102068.34;2071415;28;20316;-66
2022/11/08 02:16:44;;;;;;;20.97;15.47;;;;;;;14.73;100.00;102064.34;2070927;28;20197;-66
2022/11/08 02:17:44;;;;;;;17.93;15.10;;;;;;;14.68;100.00;102064.03;2070288;28;20706;-66
2022/11/08 02:18:47;;;;;;;17.77;15.77;;;;;;;14.73;100.00;102063.53;2070127;28;20197;-66
2022/11/08 02:19:49;;;;;;;21.60;15.70;;;;;;;14.75;100.00;102061.13;2070253;28;20193;-66
2022/11/08 02:21:11;;;;;;;18.60;15.43;;;;;;;14.73;100.00;102064.34;2069716;28;20467;-66
2022/11/08 02:22:34;;;;;;;20.63;16.03;;;;;;;14.73;100.00;102067.13;2070071;28;20955;-66
2022/11/08 02:23:46;;;;;;;19.83;15.53;;;;;;;14.72;100.00;102061.97;2070935;28;20449;-66
2022/11/08 02:24:47;;;;;;;18.63;15.77;;;;;;;14.67;100.00;102054.09;2071183;28;20455;-66
2022/11/08 02:25:47;;;;;;;17.87;15.97;;;;;;;14.72;100.00;102068.34;2070813;28;20859;-66
2022/11/08 02:26:51;;;;;;;18.50;16.13;;;;;;;14.73;100.00;102063.53;2069823;28;20185;-66
2022/11/08 02:27:51;;;;;;;18.17;15.80;;;;;;;14.71;100.00;102063.97;2071239;28;20304;-66
2022/11/08 02:28:52;;;;;;;21.43;16.87;;;;;;;14.27;100.00;101991.84;2070380;28;20541;-66
2022/11/08 02:29:54;;;;;;;17.90;15.80;;;;;;;14.74;100.00;102065.13;2070031;28;20246;-66
2022/11/08 02:30:55;;;;;;;19.00;16.13;;;;;;;14.75;100.00;102073.06;2070190;28;20602;-66
2022/11/08 02:31:56;;;;;;;20.13;15.60;;;;;;;14.65;100.00;102054.50;2072047;28;20437;-66
2022/11/08 02:32:56;;;;;;;17.67;15.40;;;;;;;14.77;100.00;102070.66;2069999;28;20201;-66
2022/11/08 02:33:57;;;;;;;21.13;15.70;;;;;;;14.77;100.00;102067.88;2071142;28;20479;-66
2022/11/08 02:34:58;;;;;;;21.57;16.77;;;;;;;14.75;100.00;102063.94;2070865;28;20197;-66
2022/11/08 02:35:58;;;;;;;18.93;15.13;;;;;;;14.78;100.00;102068.63;2071375;28;20189;-66
2022/11/08 02:37:00;;;;;;;20.80;16.43;;;;;;;14.79;100.00;102068.22;2070352;28;20545;-66
2022/11/08 02:38:01;;;;;;;18.17;15.83;;;;;;;14.77;100.00;102058.69;2070067;28;20204;-66
2022/11/08 02:39:01;;;;;;;20.87;15.63;;;;;;;14.80;100.00;102066.22;2069758;28;20421;-66
2022/11/08 02:40:03;;;;;;;19.63;16.20;;;;;;;14.82;100.00;102058.19;2071020;28;20189;-66
2022/11/08 02:41:04;;;;;;;18.13;15.80;;;;;;;14.78;100.00;102058.28;2070769;28;20197;-66
2022/11/08 02:42:05;;;;;;;23.67;16.20;;;;;;;14.23;100.00;101970.78;2070874;28;20448;-66
2022/11/08 02:43:05;;;;;;;21.03;16.23;;;;;;;14.81;100.00;102060.19;2070837;28;20189;-66
2022/11/08 02:44:06;;;;;;;19.17;15.87;;;;;;;14.80;100.00;102069.00;2069840;28;20197;-66
2022/11/08 02:45:07;;;;;;;18.10;14.97;;;;;;;14.77;100.00;102056.69;2070569;28;20204;-66
2022/11/08 02:46:07;;;;;;;20.00;16.10;;;;;;;14.82;100.00;102069.38;2069966;28;20206;-66
2022/11/08 02:47:08;;;;;;;23.53;15.97;;;;;;;14.82;100.00;102064.59;2069987;28;20439;-66
2022/11/08 02:48:08;;;;;;;24.13;16.33;;;;;;;14.86;100.00;102062.50;2070794;28;20563;-66
2022/11/08 02:49:10;;;;;;;21.90;15.47;;;;;;;14.87;100.00;102068.88;2070438;28;20229;-66
2022/11/08 02:50:10;;;;;;;20.90;15.53;;;;;;;14.82;100.00;102061.78;2070647;28;20228;-66
2022/11/08 02:51:10;;;;;;;26.13;16.70;;;;;;;14.82;100.00;102064.59;2070391;28;20446;-66
2022/11/08 02:52:11;;;;;;;21.87;15.90;;;;;;;14.79;100.00;102057.06;2070602;28;20212;-66
2022/11/08 02:53:12;;;;;;;21.30;15.90;;;;;;;14.76;100.00;102069.06;2070233;28;20213;-66
2022/11/08 02:54:12;;;;;;;21.13;15.60;;;;;;;13.82;100.00;101912.53;2070087;28;20205;-66
2022/11/08 02:55:13;;;;;;;23.07;15.50;;;;;;;14.74;100.00;102060.34;2069877;28;20235;-66
2022/11/08 02:56:13;;;;;;;21.70;16.30;;;;;;;14.73;100.00;102055.16;2070915;28;20620;-66
2022/11/08 02:57:14;;;;;;;20.97;16.43;;;;;;;14.72;100.00;102062.78;2071742;28;20191;-66
2022/11/08 02:58:14;;;;;;;24.40;15.57;;;;;;;14.68;100.00;102052.88;2070968;28;20198;-66
2022/11/08 02:59:15;;;;;;;17.00;14.60;;;;;;;14.65;100.00;102048.94;2070222;28;20236;-66
2022/11/08 03:00:15;;;;;;;23.63;15.63;;;;;;;14.69;100.00;102063.63;2070184;28;20185;-66
2022/11/08 03:01:15;;;;;;;17.63;14.67;;;;;;;14.68;100.00;102062.03;2069866;28;20195;-66
2022/11/08 03:02:16;;;;;;;21.77;15.00;;;;;;;14.67;100.00;102062.47;2069950;28;20268;-66
2022/11/08 03:03:16;;;;;;;17.13;15.30;;;;;;;14.67;100.00;102059.66;2070956;28;20199;-66
2022/11/08 03:04:17;;;;;;;20.13;15.30;;;;;;;14.60;100.00;102060.56;2070603;28;20788;-66
2022/11/08 03:05:17;;;;;;;21.63;15.30;;;;;;;14.60;100.00;102068.94;2071793;28;20184;-66
2022/11/08 03:06:18;;;;;;;18.77;15.63;;;;;;;14.52;100.00;102059.16;2070315;28;20192;-66
2022/11/08 03:07:18;;;;;;;22.60;15.13;;;;;;;14.56;100.00;102068.22;2070976;28;20196;-66
2022/11/08 03:08:19;;;;;;;19.77;15.40;;;;;;;14.54;100.00;102061.47;2070891;28;20680;-66
2022/11/08 03:09:19;;;;;;;18.33;14.37;;;;;;;14.52;100.00;102075.06;2069721;28;20213;-66
2022/11/08 03:10:21;;;;;;;18.63;14.60;;;;;;;14.49;100.00;102067.56;2069488;28;20211;-66
2022/11/08 03:11:22;;;;;;;25.00;14.70;;;;;;;14.01;100.00;102003.81;2070616;28;20180;-66
2022/11/08 03:12:22;;;;;;;16.60;14.07;;;;;;;14.43;100.00;102072.84;2070469;28;20437;-66
2022/11/08 03:13:22;;;;;;;20.13;14.67;;;;;;;14.46;100.00;102072.00;2071039;28;20234;-66
2022/11/08 03:14:23;;;;;;;18.80;14.23;;;;;;;14.41;100.00;102060.53;2070229;28;20196;-66
2022/11/08 03:15:24;;;;;;;17.00;14.00;;;;;;;14.41;100.00;102072.50;2070129;28;20192;-66
2022/11/08 03:16:25;;;;;;;16.83;13.93;;;;;;;14.41;100.00;102077.25;2069680;28;20710;-66
2022/11/08 03:17:25;;;;;;;15.47;13.67;;;;;;;14.40;100.00;102078.47;2069383;28;20459;-66
2022/11/08 03:18:25;;;;;;;19.37;14.83;;;;;;;14.30;100.00;102062.72;2070267;28;20205;-66
2022/11/08 03:19:26;;;;;;;16.37;13.97;;;;;;;14.32;100.00;102077.81;2069850;28;20213;-66
2022/11/08 03:20:26;;;;;;;16.30;14.40;;;;;;;14.31;100.00;102073.44;2070337;28;20553;-66
2022/11/08 03:21:27;;;;;;;18.47;14.40;;;;;;;14.00;100.00;102023.72;2070706;28;20181;-66
2022/11/08 03:22:27;;;;;;;15.93;13.87;;;;;;;14.17;100.00;102053.31;2070675;28;20251;-66
2022/11/08 03:23:28;;;;;;;17.90;14.57;;;;;;;14.24;100.00;102072.78;2070144;28;20197;-66
2022/11/08 03:24:28;;;;;;;16.30;14.47;;;;;;;14.22;100.00;102069.59;2070683;28;20204;-66
2022/11/08 03:25:29;;;;;;;20.13;14.00;;;;;;;13.51;100.00;101968.75;2070634;28;20697;-66
2022/11/08 03:26:31;;;;;;;20.33;14.03;;;;;;;14.13;100.00;102080.47;2070157;28;20248;-66
2022/11/08 03:27:31;;;;;;;16.07;13.57;;;;;;;14.11;100.00;102074.53;2069930;28;20700;-66
2022/11/08 03:28:32;;;;;;;16.77;12.87;;;;;;;14.05;100.00;102065.06;2070217;28;20502;-66
2022/11/08 03:29:32;;;;;;;15.70;13.30;;;;;;;14.04;100.00;102069.06;2070958;28;20215;-66
2022/11/08 03:30:34;;;;;;;18.07;14.13;;;;;;;14.03;100.00;102075.84;2069308;28;20208;-66
2022/11/08 03:31:35;;;;;;;16.63;13.73;;;;;;;13.99;100.00;102083.47;2070590;28;20190;-66
2022/11/08 03:32:35;;;;;;;14.73;13.13;;;;;;;13.92;100.00;102072.41;2070532;28;20443;-66
2022/11/08 03:33:35;;;;;;;16.00;12.47;;;;;;;13.95;100.00;102088.31;2070334;28;20200;-66
2022/11/08 03:34:36;;;;;;;16.43;13.90;;;;;;;13.97;100.00;102080.31;2069988;28;20251;-66
2022/11/08 03:35:36;;;;;;;15.73;13.07;;;;;;;13.93;100.00;102085.94;2069724;28;20242;-66
2022/11/08 03:36:37;;;;;;;16.83;13.07;;;;;;;13.89;100.00;102076.84;2070111;28;20671;-66
2022/11/08 03:37:37;;;;;;;15.23;12.53;;;;;;;13.92;100.00;102087.16;2071115;28;20228;-66
2022/11/08 03:38:38;;;;;;;16.53;12.87;;;;;;;13.24;100.00;101977.09;2070216;28;20228;-66
2022/11/08 03:39:38;;;;;;;14.00;12.50;;;;;;;13.89;100.00;102087.97;2070051;28;20190;-66
2022/11/08 03:40:39;;;;;;;14.73;13.17;;;;;;;13.30;100.00;101989.34;2070300;28;20659;-66
2022/11/08 03:41:39;;;;;;;19.77;12.70;;;;;;;13.89;100.00;102081.63;2069591;28;20198;-66
2022/11/08 03:42:39;;;;;;;16.23;12.87;;;;;;;13.89;100.00;102090.75;2070548;28;20200;-66
2022/11/08 03:43:40;;;;;;;15.83;12.73;;;;;;;13.89;100.00;102084.41;2070390;28;20679;-66
2022/11/08 03:44:41;;;;;;;13.73;11.13;;;;;;;13.87;100.00;102089.59;2078931;28;20177;-66
2022/11/08 03:45:41;;;;;;;18.00;12.73;;;;;;;13.77;100.00;102073.81;2078556;28;20189;-66
2022/11/08 03:46:42;;;;;;;14.53;12.37;;;;;;;13.82;100.00;102087.28;2070239;28;20709;-66
2022/11/08 03:47:44;;;;;;;12.90;11.60;;;;;;;13.82;100.00;102090.06;2070750;28;20204;-66
2022/11/08 03:48:45;;;;;;;13.77;12.00;;;;;;;13.82;100.00;102090.88;2070322;28;20206;-66
2022/11/08 03:49:45;;;;;;;17.20;13.63;;;;;;;13.78;100.00;102081.00;2069190;28;20907;-66
2022/11/08 03:50:46;;;;;;;16.53;13.10;;;;;;;13.80;100.00;102084.94;2069756;28;20378;-66
2022/11/08 03:51:46;;;;;;;17.13;12.50;;;;;;;13.76;100.00;102080.59;2070518;28;20247;-66
2022/11/08 03:52:52;;;;;;;15.63;13.00;;;;;;;13.73;100.00;102075.91;2070553;28;20185;-66
2022/11/08 03:53:52;;;;;;;15.30;12.57;;;;;;;12.72;100.00;101919.28;2071073;28;20185;-66
2022/11/08 03:54:53;;;;;;;14.70;12.30;;;;;;;13.72;100.00;102080.66;2070245;28;20476;-66
2022/11/08 03:55:53;;;;;;;14.63;12.37;;;;;;;13.69;100.00;102080.72;2069771;28;20636;-66
2022/11/08 03:56:53;;;;;;;15.13;11.93;;;;;;;13.72;100.00;102085.44;2070490;28;20197;-66
2022/11/08 03:57:55;;;;;;;17.03;12.57;;;;;;;13.70;100.00;102087.88;2070664;28;20209;-66
2022/11/08 03:58:55;;;;;;;16.83;13.73;;;;;;;13.67;100.00;102083.91;2070558;28;20197;-66
2022/11/08 03:59:56;;;;;;;13.53;12.07;;;;;;;13.70;100.00;102090.66;2070056;28;20424;-66
2022/11/08 04:00:57;;;;;;;15.03;13.40;;;;;;;13.63;100.00;102083.16;2069683;28;20189;-66
2022/11/08 04:01:57;;;;;;;15.23;12.57;;;;;;;13.64;100.00;102086.75;2071127;28;20268;-66
2022/11/08 04:03:02;;;;;;;16.47;12.33;;;;;;;13.61;100.00;102079.22;2070693;28;20431;-66
2022/11/08 04:04:03;;;;;;;21.60;15.60;;;;;;;13.61;100.00;102093.94;2070812;28;20554;-66
2022/11/08 04:05:08;;;;;;;21.63;15.63;;;;;;;13.60;100.00;102084.03;2069844;28;20463;-66
2022/11/08 04:06:09;;;;;;;19.47;14.60;;;;;;;13.62;100.00;102089.19;2070615;28;20538;-66
2022/11/08 04:07:09;;;;;;;20.33;16.03;;;;;;;13.60;100.00;102088.78;2069758;28;20444;-66
2022/11/08 04:08:10;;;;;;;15.97;14.07;;;;;;;13.45;100.00;102062.31;2070237;28;20192;-66
2022/11/08 04:09:10;;;;;;;20.33;16.57;;;;;;;13.61;100.00;102090.38;2069683;28;20243;-66
2022/11/08 04:10:11;;;;;;;20.90;16.97;;;;;;;13.63;100.00;102099.88;2069815;28;20604;-66
2022/11/08 04:15:16;;;;;;;25.73;17.03;;;;;;;13.58;100.00;102089.19;2070157;28;20440;-66
2022/11/08 04:16:16;;;;;;;22.07;17.47;;;;;;;13.65;100.00;102093.91;2070274;28;20852;-66
2022/11/08 04:17:17;;;;;;;25.00;18.37;;;;;;;13.53;100.00;102072.19;2069910;28;20449;-66
2022/11/08 04:21:17;;;;;;;13.33;11.97;;;;;;;13.70;100.00;102091.44;2067995;28;20861;-66
2022/11/08 04:22:18;;;;;;;12.70;11.23;;;;;;;13.69;100.00;102094.66;2067741;28;20448;-66
2022/11/08 04:23:18;;;;;;;12.83;10.47;;;;;;;13.69;100.00;102089.84;2069425;28;20453;-65
2022/11/08 04:24:19;;;;;;;14.87;11.27;;;;;;;13.69;100.00;102084.28;2069239;28;20231;-65
2022/11/08 04:25:20;;;;;;;14.90;12.60;;;;;;;13.68;100.00;102079.16;2071569;28;20182;-65
2022/11/08 04:26:21;;;;;;;21.03;13.00;;;;;;;13.07;100.00;101985.66;2069850;28;20452;-65
2022/11/08 04:27:21;;;;;;;18.43;13.00;;;;;;;13.69;100.00;102075.91;2070090;28;20193;-65
2022/11/08 04:28:23;;;;;;;15.47;12.67;;;;;;;13.69;100.00;102075.16;2069534;28;20271;-65
2022/11/08 04:29:24;;;;;;;19.60;12.97;;;;;;;13.66;100.00;102076.78;2069673;28;20238;-65
2022/11/08 04:30:25;;;;;;;17.10;13.30;;;;;;;13.67;100.00;102072.78;2069381;28;20429;-66
2022/11/08 04:31:25;;;;;;;14.87;12.70;;;;;;;13.55;100.00;102056.63;2070257;28;20188;-66
2022/11/08 04:32:25;;;;;;;17.30;13.60;;;;;;;13.65;100.00;102072.41;2071298;28;20198;-66
2022/11/08 04:33:26;;;;;;;13.60;11.90;;;;;;;13.63;100.00;102074.81;2070911;28;20761;-66
2022/11/08 04:34:26;;;;;;;17.70;12.70;;;;;;;13.64;100.00;102075.63;2070960;28;20197;-65
2022/11/08 04:35:28;;;;;;;14.80;11.47;;;;;;;13.60;100.00;102072.06;2071886;28;20200;-66
2022/11/08 04:36:28;;;;;;;12.30;11.00;;;;;;;13.59;100.00;102073.28;2071746;28;20198;-66
2022/11/08 04:37:29;;;;;;;11.67;10.17;;;;;;;13.59;100.00;102073.28;2071570;28;20456;-66
2022/11/08 04:38:30;;;;;;;12.23;10.93;;;;;;;13.56;100.00;102071.31;2071714;28;20577;-66
2022/11/08 04:39:31;;;;;;;14.90;11.73;;;;;;;13.54;100.00;102066.19;2071691;28;21401;-66
2022/11/08 04:40:32;;;;;;;13.57;11.37;;;;;;;13.41;100.00;102051.25;2072513;28;20478;-66
2022/11/08 04:41:32;;;;;;;13.03;11.37;;;;;;;13.52;100.00;102074.16;2070568;28;20305;-66
2022/11/08 04:42:32;;;;;;;16.77;12.60;;;;;;;13.41;100.00;102061.56;2070398;28;20202;-66
2022/11/08 04:43:33;;;;;;;14.37;12.43;;;;;;;13.50;100.00;102071.03;2071017;28;20296;-66
2022/11/08 04:44:34;;;;;;;16.10;12.60;;;;;;;13.50;100.00;102073.00;2071289;28;20686;-66
2022/11/08 04:45:34;;;;;;;13.67;12.27;;;;;;;13.46;100.00;102066.69;2070722;28;20198;-66
2022/11/08 04:46:35;;;;;;;17.43;12.40;;;;;;;12.64;100.00;101940.03;2070114;28;20244;-66
2022/11/08 04:47:36;;;;;;;15.93;12.30;;;;;;;13.45;100.00;102074.28;2071478;28;20186;-66
2022/11/08 04:48:36;;;;;;;14.70;11.67;;;;;;;13.30;100.00;102060.94;2072325;28;20251;-66
2022/11/08 04:49:37;;;;;;;15.17;11.77;;;;;;;13.42;100.00;102077.88;2072238;28;20279;-66
2022/11/08 04:50:37;;;;;;;17.80;12.70;;;;;;;13.44;100.00;102080.25;2070480;28;20241;-66
2022/11/08 04:51:38;;;;;;;15.77;13.90;;;;;;;13.39;100.00;102087.09;2071577;28;20189;-66
2022/11/08 04:52:40;;;;;;;17.43;13.77;;;;;;;12.90;100.00;102004.13;2071102;28;20193;-66
2022/11/08 04:53:40;;;;;;;18.80;14.10;;;;;;;13.40;100.00;102096.19;2071585;28;20467;-66